Time;durP1;ratioP1;P1;durP2;ratioP2;P2;SDS_P1;SDS_P2;PMS_P1;PMS_P2;Temp;Humidity;BMP_temperature;BMP_pressure;BME280_temperature;BME280_humidity;BME280_pressure;Samples;Min_cycle;Max_cycle;Signal;HPM_P1;HPM_P2
2023/05/01 00:01:22;;;;;;;15.43;5.30;;;;;;;11.68;96.41;101567.91;5125622;27;20039;-73
2023/05/01 00:03:47;;;;;;;14.35;4.90;;;;;;;11.62;96.94;101570.47;5122311;27;20031;-72
2023/05/01 00:06:12;;;;;;;17.27;5.57;;;;;;;11.55;97.02;101564.25;5124696;27;20402;-72
2023/05/01 00:08:38;;;;;;;16.17;5.30;;;;;;;11.47;96.90;101557.94;5123349;27;20027;-72
2023/05/01 00:11:04;;;;;;;16.77;5.50;;;;;;;11.46;98.00;101554.44;5123327;27;20479;-68
2023/05/01 00:13:31;;;;;;;15.55;5.18;;;;;;;11.42;97.49;101552.59;5124313;27;20030;-69
2023/05/01 00:15:56;;;;;;;16.60;5.43;;;;;;;11.50;98.98;101552.69;5122042;27;20035;-69
2023/05/01 00:18:22;;;;;;;17.70;5.45;;;;;;;11.51;97.97;101539.47;5125489;27;20379;-68
2023/05/01 00:20:47;;;;;;;15.80;5.30;;;;;;;11.59;97.99;101543.97;5121916;27;20063;-68
2023/05/01 00:23:13;;;;;;;16.33;5.43;;;;;;;11.64;96.86;101545.78;5124373;27;20372;-68
2023/05/01 00:25:38;;;;;;;15.98;5.40;;;;;;;11.66;97.58;101532.56;5123244;27;20096;-68
2023/05/01 00:28:05;;;;;;;17.23;5.50;;;;;;;11.65;96.91;101536.13;5122873;27;20528;-68
2023/05/01 00:30:32;;;;;;;14.57;5.20;;;;;;;11.61;96.61;101534.28;5123723;27;20156;-69
2023/05/01 00:32:58;;;;;;;15.90;5.10;;;;;;;11.62;98.78;101530.75;5122427;28;20028;-68
2023/05/01 00:35:24;;;;;;;16.55;5.20;;;;;;;11.60;99.81;101535.16;5125076;27;20039;-68
2023/05/01 00:37:49;;;;;;;15.35;5.15;;;;;;;11.49;100.00;101527.09;5121570;28;20023;-68
2023/05/01 00:40:15;;;;;;;15.75;5.30;;;;;;;11.49;100.00;101521.81;5124609;28;20027;-68
2023/05/01 00:42:40;;;;;;;17.08;5.43;;;;;;;11.47;100.00;101519.13;5122705;27;20027;-68
2023/05/01 00:45:07;;;;;;;15.68;5.45;;;;;;;11.49;100.00;101517.41;5123227;27;20023;-68
2023/05/01 00:47:35;;;;;;;16.63;5.32;;;;;;;11.49;100.00;101522.69;5123908;27;20038;-68
2023/05/01 00:50:01;;;;;;;18.08;5.75;;;;;;;11.51;100.00;101510.34;5122341;28;20070;-68
2023/05/01 00:52:26;;;;;;;17.15;5.50;;;;;;;11.49;100.00;101511.22;5124482;27;20031;-67
2023/05/01 00:54:53;;;;;;;17.65;5.78;;;;;;;11.38;100.00;101508.44;5120317;28;20085;-68
2023/05/01 00:57:19;;;;;;;17.48;5.78;;;;;;;11.33;100.00;101500.44;5124681;28;20068;-69
2023/05/01 00:59:45;;;;;;;18.02;6.10;;;;;;;11.38;100.00;101510.19;5122065;27;20045;-68
2023/05/01 01:02:14;;;;;;;18.92;6.28;;;;;;;11.28;100.00;101496.84;5123628;28;20462;-67
2023/05/01 01:04:44;;;;;;;16.38;5.70;;;;;;;11.35;100.00;101503.09;5122586;27;20027;-68
2023/05/01 01:07:25;;;;;;;17.58;5.80;;;;;;;11.30;100.00;101499.50;5122118;28;20440;-68
2023/05/01 01:10:32;;;;;;;16.85;5.70;;;;;;;11.39;100.00;101489.03;5123862;28;20027;-68
2023/05/01 01:13:07;;;;;;;19.15;5.72;;;;;;;11.31;100.00;101488.06;5081367;28;20084;-69
2023/05/01 01:15:49;;;;;;;18.00;5.80;;;;;;;11.32;100.00;101488.06;5123592;27;20477;-68
2023/05/01 01:18:36;;;;;;;17.52;5.90;;;;;;;11.34;100.00;101480.16;5124045;28;20042;-67
2023/05/01 01:21:18;;;;;;;16.45;6.00;;;;;;;11.25;100.00;101474.75;5123991;28;20059;-68
2023/05/01 01:24:01;;;;;;;17.90;6.20;;;;;;;11.21;100.00;101472.94;5123769;28;20381;-68
2023/05/01 01:26:44;;;;;;;18.02;5.97;;;;;;;11.25;100.00;101474.75;5121465;28;20032;-68
2023/05/01 01:29:32;;;;;;;17.10;5.97;;;;;;;11.19;100.00;101469.41;5122360;27;20034;-69
2023/05/01 01:32:30;;;;;;;18.17;6.55;;;;;;;11.19;100.00;101464.09;5119868;28;20104;-68
2023/05/01 01:35:02;;;;;;;20.38;6.40;;;;;;;11.18;100.00;101455.25;5120825;28;20042;-68
2023/05/01 01:37:31;;;;;;;17.98;6.10;;;;;;;11.19;100.00;101448.22;5124177;27;20052;-72
2023/05/01 01:39:57;;;;;;;17.65;5.82;;;;;;;11.13;100.00;101451.69;5124659;27;20089;-71
2023/05/01 01:42:25;;;;;;;18.15;6.13;;;;;;;11.13;100.00;101444.63;5128214;27;20019;-69
2023/05/01 01:44:54;;;;;;;18.02;6.15;;;;;;;11.14;100.00;101441.13;5124907;27;20374;-68
2023/05/01 01:47:25;;;;;;;18.45;6.28;;;;;;;11.09;100.00;101437.53;5124822;27;20139;-70
2023/05/01 01:49:52;;;;;;;18.45;6.10;;;;;;;11.08;100.00;101437.50;5124525;27;20390;-70
2023/05/01 01:52:19;;;;;;;18.80;6.25;;;;;;;10.98;100.00;101434.75;5127554;27;20042;-68
2023/05/01 01:54:52;;;;;;;17.33;6.18;;;;;;;10.99;100.00;101431.25;5125349;27;20027;-69
2023/05/01 01:57:18;;;;;;;;;;;;;;;11.09;100.00;101424.28;5128110;27;20019;-69
2023/05/01 01:59:46;;;;;;;17.45;5.95;;;;;;;10.99;100.00;101425.06;5125151;27;19911;-69
2023/05/01 02:02:14;;;;;;;19.70;6.30;;;;;;;10.98;100.00;101424.19;5126690;27;20394;-70
2023/05/01 02:04:41;;;;;;;18.05;6.28;;;;;;;10.88;100.00;101426.69;5125791;27;20050;-68
2023/05/01 02:07:08;;;;;;;18.30;6.20;;;;;;;10.86;100.00;101425.78;5125694;27;20024;-68
2023/05/01 02:09:34;;;;;;;17.77;6.00;;;;;;;10.78;100.00;101421.28;5126410;27;20034;-69
2023/05/01 02:12:04;;;;;;;18.02;6.05;;;;;;;10.82;100.00;101414.28;5124854;27;20031;-69
2023/05/01 02:14:30;;;;;;;17.77;6.20;;;;;;;10.79;100.00;101423.06;5126854;27;20023;-73
2023/05/01 02:16:57;;;;;;;18.17;6.10;;;;;;;10.85;100.00;101419.63;5123968;27;20483;-69
2023/05/01 02:19:24;;;;;;;18.05;6.00;;;;;;;10.84;100.00;101411.66;5127700;27;20027;-68
2023/05/01 02:21:52;;;;;;;18.33;5.88;;;;;;;10.87;100.00;101414.34;5123759;27;20053;-69
2023/05/01 02:24:21;;;;;;;19.50;6.20;;;;;;;10.81;100.00;101405.44;5127071;27;20478;-69
2023/05/01 02:26:54;;;;;;;19.10;6.38;;;;;;;10.77;100.00;101403.63;5124551;27;20031;-69
2023/05/01 02:29:19;;;;;;;;;;;;;;;10.89;100.00;101405.56;5127771;27;20444;-68
2023/05/01 02:31:44;;;;;;;17.40;6.15;;;;;;;10.70;100.00;101395.59;5124344;27;20112;-68
2023/05/01 02:34:11;;;;;;;18.48;6.40;;;;;;;10.61;100.00;101391.09;5125850;27;20051;-68
2023/05/01 02:36:36;;;;;;;18.17;6.57;;;;;;;10.64;100.00;101388.50;5125495;27;20143;-68
2023/05/01 02:39:02;;;;;;;18.17;6.20;;;;;;;10.66;100.00;101394.69;5124597;27;20059;-68
2023/05/01 02:41:30;;;;;;;19.15;6.75;;;;;;;10.65;100.00;101382.34;5126955;27;20023;-68
2023/05/01 02:44:00;;;;;;;18.63;6.18;;;;;;;10.66;100.00;101388.50;5123525;27;20107;-68
2023/05/01 02:46:27;;;;;;;18.83;6.90;;;;;;;10.64;100.00;101383.19;5126908;27;20768;-68
2023/05/01 02:48:55;;;;;;;18.38;6.30;;;;;;;10.67;100.00;101385.88;5123394;27;20483;-68
2023/05/01 02:51:23;;;;;;;18.00;6.43;;;;;;;10.67;100.00;101380.59;5123432;27;20046;-68
2023/05/01 02:53:48;;;;;;;19.25;6.53;;;;;;;10.72;100.00;101372.75;5126450;27;20025;-68
2023/05/01 02:56:14;;;;;;;18.52;6.18;;;;;;;10.73;100.00;101362.19;5124147;27;20102;-68
2023/05/01 02:58:40;;;;;;;19.02;6.72;;;;;;;10.66;100.00;101368.25;5125303;27;20019;-68
2023/05/01 03:01:06;;;;;;;18.02;6.75;;;;;;;10.63;100.00;101365.59;5125194;27;20069;-68
2023/05/01 03:03:31;;;;;;;18.58;6.80;;;;;;;10.60;100.00;101362.88;5124034;27;20052;-68
2023/05/01 03:05:57;;;;;;;18.45;6.80;;;;;;;10.61;100.00;101354.09;5125209;27;20063;-69
2023/05/01 03:08:22;;;;;;;19.05;7.10;;;;;;;10.58;100.00;101361.97;5123036;27;20030;-69
2023/05/01 03:10:48;;;;;;;18.67;6.90;;;;;;;10.61;100.00;101354.97;5126193;27;20067;-68
2023/05/01 03:13:13;;;;;;;19.52;6.80;;;;;;;10.57;100.00;101354.91;5123919;27;20038;-68
2023/05/01 03:15:38;;;;;;;18.25;6.60;;;;;;;10.53;100.00;101350.44;5124614;27;20522;-68
2023/05/01 03:18:04;;;;;;;20.30;7.07;;;;;;;10.62;100.00;101350.56;5125685;27;20087;-68
2023/05/01 03:20:30;;;;;;;19.95;6.82;;;;;;;10.55;100.00;101348.72;5123208;27;20020;-68
2023/05/01 03:22:56;;;;;;;19.27;6.90;;;;;;;10.53;100.00;101345.16;5126170;27;20058;-69
2023/05/01 03:25:21;;;;;;;18.77;6.75;;;;;;;10.48;100.00;101338.94;5122855;27;20504;-68
2023/05/01 03:27:48;;;;;;;19.67;7.10;;;;;;;10.41;100.00;101336.22;5125567;27;20027;-67
2023/05/01 03:30:13;;;;;;;19.73;7.22;;;;;;;10.39;100.00;101339.72;5123599;27;20035;-69
2023/05/01 03:32:39;;;;;;;20.05;7.10;;;;;;;10.40;100.00;101326.50;5124343;27;20424;-68
2023/05/01 03:35:04;;;;;;;20.27;7.00;;;;;;;10.45;100.00;101332.72;5124774;27;20031;-68
2023/05/01 03:37:30;;;;;;;19.60;7.28;;;;;;;10.46;100.00;101328.34;5123015;27;20080;-68
2023/05/01 03:39:55;;;;;;;19.50;7.13;;;;;;;10.47;100.00;101327.50;5126171;27;20038;-68
2023/05/01 03:42:21;;;;;;;19.60;7.32;;;;;;;10.41;100.00;101324.75;5122335;27;20035;-68
2023/05/01 03:44:46;;;;;;;19.65;7.32;;;;;;;10.42;100.00;101330.06;5125328;27;20027;-68
2023/05/01 03:47:12;;;;;;;19.50;7.00;;;;;;;10.42;100.00;101324.75;5123953;27;20031;-68
2023/05/01 03:49:37;;;;;;;19.23;6.82;;;;;;;10.42;100.00;101322.13;5122560;27;20023;-68
2023/05/01 03:52:02;;;;;;;19.38;6.97;;;;;;;10.40;100.00;101318.59;5124761;27;20470;-68
2023/05/01 03:54:28;;;;;;;19.42;7.05;;;;;;;10.35;100.00;101320.28;5122332;27;20382;-68
2023/05/01 03:56:53;;;;;;;18.90;6.95;;;;;;;10.36;100.00;101322.06;5125691;27;20030;-68
2023/05/01 03:59:19;;;;;;;20.58;7.40;;;;;;;10.33;100.00;101321.97;5121337;27;20092;-69
2023/05/01 04:01:44;;;;;;;20.65;6.93;;;;;;;10.26;100.00;101315.72;5124320;27;20039;-68
2023/05/01 04:04:10;;;;;;;20.27;7.20;;;;;;;10.23;100.00;101317.44;5123533;27;20102;-68
2023/05/01 04:06:36;;;;;;;20.10;7.00;;;;;;;10.23;100.00;101315.69;5123244;27;20027;-69
2023/05/01 04:09:02;;;;;;;20.48;6.85;;;;;;;10.30;100.00;101322.81;5124855;27;20363;-69
2023/05/01 04:11:27;;;;;;;18.95;7.05;;;;;;;10.24;100.00;101311.31;5121895;27;20035;-68
2023/05/01 04:13:53;;;;;;;20.38;7.10;;;;;;;10.21;100.00;101305.97;5125477;27;20390;-68
2023/05/01 04:16:18;;;;;;;19.15;7.00;;;;;;;10.16;100.00;101318.22;5122252;27;20425;-68
2023/05/01 04:18:43;;;;;;;19.95;7.28;;;;;;;10.12;100.00;101317.31;5124064;27;20047;-69
2023/05/01 04:21:09;;;;;;;19.52;7.30;;;;;;;10.15;100.00;101309.44;5123746;27;20026;-68
2023/05/01 04:23:34;;;;;;;20.70;7.57;;;;;;;10.12;100.00;101312.03;5121446;27;20027;-67
2023/05/01 04:25:59;;;;;;;19.52;7.25;;;;;;;10.11;100.00;101313.75;5125133;27;20106;-68
2023/05/01 04:28:26;;;;;;;20.25;7.40;;;;;;;10.06;100.00;101314.56;5121766;27;20020;-68
2023/05/01 04:30:52;;;;;;;19.95;7.72;;;;;;;10.03;100.00;101318.06;5121196;27;20498;-70
2023/05/01 04:33:17;;;;;;;20.38;7.20;;;;;;;9.90;100.00;101329.31;5124556;28;20069;-70
2023/05/01 04:35:42;;;;;;;19.58;7.03;;;;;;;9.89;100.00;101328.44;5123075;27;20053;-69
2023/05/01 04:38:11;;;;;;;19.55;7.20;;;;;;;9.94;100.00;101317.91;5123034;28;20028;-73
2023/05/01 04:40:37;;;;;;;19.80;7.35;;;;;;;9.97;100.00;101319.72;5123796;27;20062;-72
2023/05/01 04:43:02;;;;;;;18.98;7.50;;;;;;;10.04;100.00;101324.25;5121046;28;20539;-70
2023/05/01 04:45:27;;;;;;;19.95;7.15;;;;;;;10.01;100.00;101314.50;5125010;27;20034;-70
2023/05/01 04:47:53;;;;;;;22.50;8.13;;;;;;;10.13;100.00;101313.78;5121663;28;20382;-69
2023/05/01 04:50:18;;;;;;;20.30;7.75;;;;;;;10.18;100.00;101316.47;5124414;28;20378;-71
2023/05/01 04:52:44;;;;;;;19.52;7.60;;;;;;;10.16;100.00;101318.22;5122419;27;20058;-73
2023/05/01 04:55:09;;;;;;;19.08;7.53;;;;;;;10.12;100.00;101312.91;5121946;28;20136;-71
2023/05/01 04:57:34;;;;;;;19.10;7.20;;;;;;;10.13;100.00;101316.44;5123760;27;20080;-73
2023/05/01 05:00:00;;;;;;;19.27;7.47;;;;;;;10.05;100.00;101310.16;5121788;28;20107;-73
2023/05/01 05:02:26;;;;;;;19.48;7.55;;;;;;;10.08;100.00;101315.50;5125053;27;20035;-73
2023/05/01 05:04:53;;;;;;;20.40;8.10;;;;;;;10.05;100.00;101312.81;5121687;27;20032;-69
2023/05/01 05:07:19;;;;;;;21.15;8.25;;;;;;;10.05;100.00;101304.88;5124213;28;20047;-71
2023/05/01 05:09:44;;;;;;;20.30;7.80;;;;;;;10.04;100.00;101309.25;5122347;27;20098;-69
2023/05/01 05:12:10;;;;;;;20.48;8.13;;;;;;;10.01;100.00;101309.22;5122967;27;20027;-68
2023/05/01 05:14:35;;;;;;;21.35;8.10;;;;;;;10.04;100.00;101308.38;5126490;27;20050;-72
2023/05/01 05:17:01;;;;;;;22.70;8.70;;;;;;;10.04;100.00;101309.25;5125627;27;20103;-74
2023/05/01 05:19:26;;;;;;;21.20;8.10;;;;;;;10.04;100.00;101303.97;5128729;27;20035;-73
2023/05/01 05:21:51;;;;;;;21.75;8.55;;;;;;;10.06;100.00;101310.19;5125287;27;20443;-74
2023/05/01 05:24:17;;;;;;;20.88;8.10;;;;;;;10.04;100.00;101303.97;5128187;27;20056;-75
2023/05/01 05:26:43;;;;;;;19.88;8.05;;;;;;;10.03;100.00;101304.88;5126231;27;20406;-71
2023/05/01 05:29:08;;;;;;;21.42;8.60;;;;;;;10.04;100.00;101308.38;5126689;27;20059;-74
2023/05/01 05:31:33;;;;;;;21.25;8.60;;;;;;;10.06;100.00;101312.84;5127178;27;20047;-74
2023/05/01 05:33:59;;;;;;;24.00;9.10;;;;;;;10.10;100.00;101309.34;5125067;27;20039;-74
2023/05/01 05:36:26;;;;;;;21.58;8.63;;;;;;;10.15;100.00;101305.88;5128538;27;20023;-75
2023/05/01 05:38:52;;;;;;;23.45;8.77;;;;;;;10.28;100.00;101310.44;5123723;27;20024;-74
2023/05/01 05:41:17;;;;;;;23.17;9.20;;;;;;;10.42;100.00;101306.25;5127320;27;20052;-74
2023/05/01 05:43:42;;;;;;;21.92;8.95;;;;;;;10.51;100.00;101305.50;5126236;27;20478;-75
2023/05/01 05:46:08;;;;;;;22.27;9.07;;;;;;;10.62;100.00;101305.63;5126297;27;20114;-69
2023/05/01 05:48:33;;;;;;;21.23;9.45;;;;;;;10.78;100.00;101304.94;5127297;27;20059;-68
2023/05/01 05:50:59;;;;;;;22.00;9.43;;;;;;;10.95;100.00;101306.84;5124823;27;20381;-70
2023/05/01 05:53:24;;;;;;;21.63;9.02;;;;;;;10.97;100.00;101310.41;5128078;27;20023;-68
2023/05/01 05:55:49;;;;;;;22.65;9.63;;;;;;;10.99;100.00;101300.72;5125758;27;20020;-72
2023/05/01 05:58:22;;;;;;;21.58;9.10;;;;;;;11.05;100.00;101303.41;5134456;27;20042;-76
2023/05/01 06:00:48;;;;;;;22.13;9.05;;;;;;;11.04;100.00;101308.69;5135535;27;20034;-77
2023/05/01 06:03:14;;;;;;;22.58;9.45;;;;;;;11.04;100.00;101303.41;5135479;27;20027;-75
2023/05/01 06:05:41;;;;;;;22.52;9.45;;;;;;;11.06;100.00;101299.91;5134822;27;20110;-76
2023/05/01 06:08:09;;;;;;;21.85;9.52;;;;;;;11.10;100.00;101311.44;5135615;27;20023;-73
2023/05/01 06:10:35;;;;;;;22.48;9.40;;;;;;;11.12;100.00;101310.53;5134793;27;20035;-73
2023/05/01 06:13:00;;;;;;;21.38;9.75;;;;;;;11.18;100.00;101306.19;5135388;27;20023;-77
2023/05/01 06:15:26;;;;;;;21.40;9.80;;;;;;;11.31;100.00;101305.44;5135030;27;20058;-78
2023/05/01 06:17:51;;;;;;;21.52;9.43;;;;;;;11.40;100.00;101300.22;5135372;27;20163;-68
2023/05/01 06:20:17;;;;;;;22.30;9.90;;;;;;;11.52;100.00;101307.38;5134290;27;20031;-71
2023/05/01 06:22:42;;;;;;;22.08;9.45;;;;;;;11.59;100.00;101309.22;5135316;27;20039;-77
2023/05/01 06:25:08;;;;;;;21.88;9.45;;;;;;;11.68;100.00;101308.38;5134480;27;20030;-77
2023/05/01 06:27:34;;;;;;;22.83;9.57;;;;;;;11.72;100.00;101307.50;5135121;27;20057;-79
2023/05/01 06:29:59;;;;;;;21.92;9.70;;;;;;;11.80;100.00;101300.50;5134960;27;20098;-75
2023/05/01 06:32:24;;;;;;;20.98;9.63;;;;;;;11.88;100.00;101304.97;5135283;27;20047;-74
2023/05/01 06:34:49;;;;;;;22.60;9.82;;;;;;;11.99;100.00;101295.38;5135411;27;20039;-76
2023/05/01 06:37:15;;;;;;;21.05;9.55;;;;;;;12.05;100.00;101298.03;5134532;27;20032;-79
2023/05/01 06:39:40;;;;;;;21.80;10.10;;;;;;;12.14;100.00;101294.56;5135227;27;20035;-78
2023/05/01 06:42:06;;;;;;;21.88;10.13;;;;;;;12.24;100.00;101295.50;5134803;27;20106;-77
2023/05/01 06:44:32;;;;;;;22.27;10.00;;;;;;;12.32;100.00;101296.38;5134706;27;20081;-75
2023/05/01 06:47:00;;;;;;;21.77;9.40;;;;;;;12.45;100.00;101292.94;5134672;27;20420;-71
2023/05/01 06:49:26;;;;;;;22.13;10.23;;;;;;;12.48;100.00;101294.69;5134797;27;20095;-78
2023/05/01 06:51:51;;;;;;;22.73;10.38;;;;;;;12.54;100.00;101289.44;5134802;27;20042;-77
2023/05/01 06:54:17;;;;;;;22.30;9.70;;;;;;;12.57;100.00;101286.78;5134952;27;20023;-81
2023/05/01 06:56:42;;;;;;;21.80;10.07;;;;;;;12.60;100.00;101284.13;5134396;27;20035;-84
2023/05/01 06:59:07;;;;;;;22.77;9.95;;;;;;;12.67;100.00;101295.66;5134680;27;20023;-72
2023/05/01 07:01:33;;;;;;;22.73;10.30;;;;;;;12.71;99.52;101289.47;5135059;27;20027;-81
2023/05/01 07:03:58;;;;;;;21.92;9.85;;;;;;;12.86;99.30;101291.28;5134685;27;20114;-84
2023/05/01 07:06:23;;;;;;;22.30;9.90;;;;;;;13.06;99.88;101285.97;5134182;27;20031;-84
2023/05/01 07:08:50;;;;;;;22.30;10.02;;;;;;;13.25;96.23;101290.44;5134703;27;20047;-71
2023/05/01 07:11:15;;;;;;;21.30;9.75;;;;;;;13.26;93.30;101286.00;5134044;27;20033;-79
2023/05/01 07:13:41;;;;;;;21.95;10.25;;;;;;;13.32;93.21;101286.00;5134610;27;20023;-69
2023/05/01 07:16:06;;;;;;;23.20;10.52;;;;;;;13.37;92.37;101288.72;5132677;27;20023;-82
2023/05/01 07:18:33;;;;;;;21.98;10.27;;;;;;;13.56;92.56;101287.81;5133899;27;20462;-79
2023/05/01 07:20:58;;;;;;;23.45;10.45;;;;;;;13.57;91.51;101286.94;5133977;27;20023;-77
2023/05/01 07:23:24;;;;;;;21.98;10.10;;;;;;;13.67;90.37;101286.91;5134925;27;20026;-85
2023/05/01 07:25:50;;;;;;;22.13;10.10;;;;;;;13.75;88.83;101286.00;5133714;27;20110;-79
2023/05/01 07:28:16;;;;;;;22.55;10.60;;;;;;;13.83;87.80;101291.28;5134420;27;20445;-83
2023/05/01 07:30:42;;;;;;;21.63;10.05;;;;;;;13.92;87.28;101296.59;5134435;27;20118;-78
2023/05/01 07:33:07;;;;;;;22.23;10.10;;;;;;;13.99;85.91;101289.47;5133278;27;20077;-77
2023/05/01 07:35:32;;;;;;;22.02;10.20;;;;;;;14.16;86.36;101297.41;5133143;27;20031;-74
2023/05/01 07:37:58;;;;;;;22.23;10.02;;;;;;;14.23;83.39;101300.97;5133369;27;20019;-73
2023/05/01 07:40:23;;;;;;;20.83;9.82;;;;;;;14.43;84.54;101296.44;5133643;27;20031;-73
2023/05/01 07:42:49;;;;;;;22.20;10.20;;;;;;;14.51;81.69;101296.41;5134039;27;20050;-74
2023/05/01 07:45:14;;;;;;;21.10;9.73;;;;;;;14.55;80.12;101297.28;5132812;27;20035;-73
2023/05/01 07:47:39;;;;;;;22.83;10.15;;;;;;;14.76;81.63;101297.16;5133112;27;20024;-74
2023/05/01 07:50:09;;;;;;;22.15;10.07;;;;;;;14.83;79.48;101306.03;5133560;27;20015;-73
2023/05/01 07:52:34;;;;;;;21.90;9.68;;;;;;;14.86;79.82;101299.78;5132803;27;20470;-74
2023/05/01 07:54:59;;;;;;;21.23;9.88;;;;;;;14.73;77.09;101299.84;5132937;27;20035;-70
2023/05/01 07:57:25;;;;;;;23.00;10.50;;;;;;;14.68;79.34;101299.00;5131536;27;20019;-72
2023/05/01 07:59:56;;;;;;;22.65;10.00;;;;;;;14.93;80.56;101302.41;5133187;27;20046;-71
2023/05/01 08:02:22;;;;;;;21.67;10.45;;;;;;;14.99;78.42;101302.34;5121405;27;20030;-71
2023/05/01 08:04:47;;;;;;;23.63;10.23;;;;;;;15.11;77.95;101298.72;5122941;27;20032;-70
2023/05/01 08:07:13;;;;;;;22.55;10.68;;;;;;;15.15;79.17;101296.94;5122582;27;20111;-71
2023/05/01 08:09:39;;;;;;;22.95;9.93;;;;;;;15.27;75.71;101301.28;5123972;27;20051;-71
2023/05/01 08:12:05;;;;;;;21.67;10.65;;;;;;;15.44;75.69;101293.16;5122729;27;20063;-71
2023/05/01 08:14:30;;;;;;;21.40;10.00;;;;;;;15.82;75.55;101295.47;5124909;27;20027;-71
2023/05/01 08:16:56;;;;;;;22.40;9.38;;;;;;;16.58;66.50;101291.06;5121811;27;20032;-71
2023/05/01 08:19:22;;;;;;;21.25;9.55;;;;;;;16.98;66.35;101287.81;5124977;27;20046;-71
2023/05/01 08:21:47;;;;;;;22.08;9.20;;;;;;;17.48;64.97;101285.25;5128566;27;20383;-71
2023/05/01 08:24:12;;;;;;;24.83;9.10;;;;;;;17.69;64.05;101292.00;5131033;27;20031;-71
2023/05/01 08:26:38;;;;;;;22.45;9.77;;;;;;;18.03;61.73;101286.94;5132114;27;20054;-72
2023/05/01 08:29:03;;;;;;;20.88;9.25;;;;;;;18.30;58.91;101287.28;5132420;27;20039;-74
2023/05/01 08:31:28;;;;;;;20.75;9.25;;;;;;;18.64;59.81;101281.22;5132848;27;20038;-72
2023/05/01 08:33:54;;;;;;;22.88;9.45;;;;;;;18.77;57.75;101288.06;5130875;28;20118;-72
2023/05/01 08:36:19;;;;;;;21.48;9.23;;;;;;;18.95;57.09;101280.53;5132464;27;20095;-74
2023/05/01 08:38:45;;;;;;;20.55;9.30;;;;;;;18.42;56.90;101281.69;5128831;28;20374;-74
2023/05/01 08:41:15;;;;;;;20.25;8.77;;;;;;;18.36;57.67;101289.81;5132682;27;20027;-74
2023/05/01 08:43:42;;;;;;;22.40;9.30;;;;;;;18.40;55.91;101287.97;5132295;27;20019;-73
2023/05/01 08:46:11;;;;;;;21.25;8.90;;;;;;;18.38;55.28;101287.13;5130640;28;20433;-73
2023/05/01 08:48:41;;;;;;;19.90;8.85;;;;;;;18.80;55.44;101295.16;5126791;27;20032;-72
2023/05/01 08:51:10;;;;;;;20.00;8.82;;;;;;;19.10;55.91;101296.22;5126353;27;20365;-72
2023/05/01 08:53:37;;;;;;;21.65;8.98;;;;;;;18.76;56.51;101288.97;5128297;27;20016;-73
2023/05/01 08:56:05;;;;;;;22.50;9.40;;;;;;;18.37;56.43;101288.91;5127021;27;20346;-73
2023/05/01 08:58:34;;;;;;;21.70;9.35;;;;;;;18.17;59.04;101289.31;5126103;27;20424;-73
2023/05/01 09:01:01;;;;;;;21.13;9.27;;;;;;;17.91;60.12;101289.84;5127775;27;20023;-73
2023/05/01 09:03:30;;;;;;;20.70;9.20;;;;;;;18.15;60.20;101291.16;5126694;27;20441;-74
2023/05/01 09:05:56;;;;;;;20.88;8.95;;;;;;;17.98;58.38;101278.09;5127918;27;20031;-73
2023/05/01 09:08:21;;;;;;;21.38;9.50;;;;;;;17.75;60.08;101297.22;5125981;27;20054;-73
2023/05/01 09:10:48;;;;;;;21.15;9.50;;;;;;;17.93;59.72;101288.03;5128658;27;20027;-74
2023/05/01 09:13:13;;;;;;;19.85;8.80;;;;;;;18.39;59.36;101288.88;5125186;27;20050;-73
2023/05/01 09:15:39;;;;;;;19.50;8.35;;;;;;;18.67;56.31;101285.59;5128124;27;20023;-73
2023/05/01 09:18:04;;;;;;;20.48;8.60;;;;;;;19.10;54.59;101295.34;5126399;27;20081;-73
2023/05/01 09:20:30;;;;;;;19.85;8.07;;;;;;;20.07;52.67;101292.88;5126731;27;20032;-73
2023/05/01 09:22:56;;;;;;;19.35;7.93;;;;;;;20.75;50.17;101295.41;5126405;27;20482;-73
2023/05/01 09:25:21;;;;;;;20.13;8.02;;;;;;;20.98;49.56;101295.53;5125477;27;20034;-73
2023/05/01 09:27:47;;;;;;;19.80;7.80;;;;;;;21.22;48.62;101293.00;5128632;27;20030;-73
2023/05/01 09:30:34;;;;;;;19.10;8.00;;;;;;;21.48;49.42;101294.81;5125027;27;20030;-72
2023/05/01 09:33:13;;;;;;;20.33;8.18;;;;;;;21.42;47.71;101289.63;5126428;27;20048;-71
2023/05/01 09:35:49;;;;;;;20.00;8.68;;;;;;;21.82;47.85;101298.19;5125545;27;20390;-71
2023/05/01 09:38:19;;;;;;;19.23;8.57;;;;;;;21.98;45.84;101303.88;5124761;27;20098;-71
2023/05/01 09:40:45;;;;;;;20.45;8.98;;;;;;;22.35;46.33;101287.25;5124809;27;20024;-71
2023/05/01 09:43:11;;;;;;;21.63;9.07;;;;;;;22.55;44.74;101289.19;5128022;27;20015;-71
2023/05/01 09:45:37;;;;;;;21.42;8.50;;;;;;;23.58;42.75;101294.94;5125913;27;20091;-71
2023/05/01 09:48:09;;;;;;;20.17;8.55;;;;;;;23.72;42.83;101299.75;5126616;27;20051;-71
2023/05/01 09:50:35;;;;;;;;;;;;;;;24.44;42.69;101292.06;5126417;27;20386;-71
2023/05/01 09:53:01;;;;;;;22.63;9.37;;;;;;;23.97;41.80;101288.75;5124901;27;19915;-71
2023/05/01 09:55:27;;;;;;;21.25;9.25;;;;;;;23.71;42.77;101302.47;5126614;27;20276;-71
2023/05/01 09:57:52;;;;;;;19.20;8.05;;;;;;;23.12;42.85;101303.13;5125051;27;20368;-71
2023/05/01 10:00:20;;;;;;;21.38;8.73;;;;;;;22.93;43.29;101294.00;5127269;27;20027;-72
2023/05/01 10:02:47;;;;;;;19.90;7.90;;;;;;;22.82;42.41;101302.53;5124336;27;20120;-71
2023/05/01 10:05:13;;;;;;;20.33;8.45;;;;;;;22.36;43.02;101301.63;5127807;27;20035;-71
2023/05/01 10:07:39;;;;;;;20.92;8.93;;;;;;;22.04;44.65;101296.44;5124917;27;20110;-71
2023/05/01 10:10:19;;;;;;;21.10;9.27;;;;;;;21.89;45.59;101299.72;5126246;27;20024;-71
2023/05/01 10:12:45;;;;;;;20.35;9.30;;;;;;;21.25;44.68;101287.53;5123863;27;20036;-71
2023/05/01 10:15:11;;;;;;;20.40;8.82;;;;;;;21.20;46.37;101293.06;5127277;27;20035;-71
2023/05/01 10:17:38;;;;;;;20.05;8.68;;;;;;;21.39;45.79;101298.69;5125242;27;20027;-71
2023/05/01 10:20:05;;;;;;;19.23;8.27;;;;;;;21.53;46.55;101292.88;5126468;27;20130;-71
2023/05/01 10:22:31;;;;;;;20.38;8.35;;;;;;;21.86;44.80;101298.00;5124182;27;20027;-72
2023/05/01 10:24:58;;;;;;;21.02;8.98;;;;;;;21.99;45.95;101311.00;5126790;27;20074;-71
2023/05/01 10:27:24;;;;;;;20.30;8.68;;;;;;;21.96;45.75;101305.75;5123679;27;20497;-71
2023/05/01 10:29:52;;;;;;;20.40;8.02;;;;;;;21.58;47.50;101308.84;5123627;27;20046;-71
2023/05/01 10:32:18;;;;;;;20.92;8.30;;;;;;;21.79;48.96;101299.16;5126499;27;20096;-71
2023/05/01 10:34:50;;;;;;;21.65;8.88;;;;;;;22.06;46.65;101315.25;5124605;27;20030;-71
2023/05/01 10:37:23;;;;;;;20.23;8.33;;;;;;;22.60;45.74;101298.00;5126688;27;20027;-71
2023/05/01 10:39:48;;;;;;;19.92;8.05;;;;;;;22.68;44.66;101300.38;5123742;27;20032;-71
2023/05/01 10:42:14;;;;;;;21.02;8.23;;;;;;;22.72;44.01;101306.53;5126309;27;20057;-71
2023/05/01 10:44:41;;;;;;;20.13;8.25;;;;;;;22.41;45.51;101310.38;5125173;27;20023;-71
2023/05/01 10:47:29;;;;;;;21.48;8.85;;;;;;;22.33;45.95;101315.22;5125064;27;20463;-71
2023/05/01 10:50:21;;;;;;;20.45;8.57;;;;;;;22.55;45.54;101310.75;5123398;27;20019;-71
2023/05/01 10:53:11;;;;;;;20.42;8.30;;;;;;;22.39;44.97;101321.22;5120325;27;20444;-71
2023/05/01 10:55:39;;;;;;;20.58;8.43;;;;;;;22.91;44.64;101312.94;5125085;27;20381;-72
2023/05/01 10:58:04;;;;;;;19.75;8.23;;;;;;;24.91;40.09;101313.25;5125508;27;20022;-71
2023/05/01 11:00:31;;;;;;;20.42;8.23;;;;;;;26.41;38.09;101325.44;5123730;27;20035;-72
2023/05/01 11:03:33;;;;;;;20.50;8.40;;;;;;;27.22;37.57;101318.28;5126619;27;20035;-71
2023/05/01 11:05:58;;;;;;;20.77;8.02;;;;;;;27.41;35.16;101318.97;5123468;27;20020;-71
2023/05/01 11:08:36;;;;;;;20.63;8.27;;;;;;;26.99;36.27;101317.78;5126762;27;20030;-71
2023/05/01 11:11:22;;;;;;;19.88;8.05;;;;;;;26.81;37.59;101307.97;5122580;27;20023;-71
2023/05/01 11:14:07;;;;;;;20.17;8.10;;;;;;;26.64;35.39;101314.31;5123220;27;20041;-71